createdAt,value
2022-11-30T00:01:13.545Z,6.70
2022-11-30T00:03:40.246Z,6.36
2022-11-30T00:06:09.234Z,6.56
2022-11-30T00:08:35.776Z,6.62
2022-11-30T00:11:12.839Z,6.85
2022-11-30T00:13:39.506Z,6.55
2022-11-30T00:16:06.840Z,6.70
2022-11-30T00:18:33.596Z,6.92
2022-11-30T00:21:01.944Z,6.75
2022-11-30T00:23:39.905Z,6.84
2022-11-30T00:26:11.375Z,6.52
2022-11-30T00:28:39.048Z,6.47
2022-11-30T00:31:07.005Z,6.37
2022-11-30T00:33:35.141Z,6.21
2022-11-30T00:36:08.063Z,6.74
2022-11-30T00:38:34.807Z,6.61
2022-11-30T00:41:02.077Z,6.80
2022-11-30T00:43:28.982Z,6.59
2022-11-30T00:45:56.790Z,6.64
2022-11-30T00:48:23.428Z,6.58
2022-11-30T00:50:51.068Z,6.44
2022-11-30T00:53:18.241Z,6.74
2022-11-30T00:55:45.882Z,6.48
2022-11-30T00:58:15.884Z,6.70
2022-11-30T01:00:42.897Z,6.39
2022-11-30T01:03:10.134Z,6.47
2022-11-30T01:05:36.982Z,6.37
2022-11-30T01:08:06.414Z,6.49
2022-11-30T01:10:34.468Z,6.40
2022-11-30T01:13:02.228Z,6.52
2022-11-30T01:15:29.507Z,6.26
2022-11-30T01:17:56.408Z,6.37
2022-11-30T01:20:23.075Z,6.18
2022-11-30T01:22:49.608Z,6.08
2022-11-30T01:25:16.349Z,6.28
2022-11-30T01:27:43.027Z,5.87
2022-11-30T01:30:10.202Z,6.32
2022-11-30T01:32:37.776Z,6.47
2022-11-30T01:35:04.607Z,6.55
2022-11-30T01:37:31.197Z,6.63
2022-11-30T01:39:57.790Z,6.67
2022-11-30T01:42:24.419Z,6.09
2022-11-30T01:44:58.751Z,6.66
2022-11-30T01:47:51.608Z,6.46
2022-11-30T01:50:26.397Z,5.92
2022-11-30T01:52:56.559Z,6.01
2022-11-30T01:55:29.024Z,5.97
2022-11-30T01:58:09.923Z,5.97
2022-11-30T02:00:36.494Z,5.76
2022-11-30T02:03:11.359Z,6.34
2022-11-30T02:05:40.578Z,5.92
2022-11-30T02:08:10.735Z,6.00
2022-11-30T02:10:42.168Z,5.96
2022-11-30T02:13:34.106Z,6.18
2022-11-30T02:16:06.821Z,6.34
2022-11-30T02:18:58.114Z,6.53
2022-11-30T02:21:40.915Z,6.69
2022-11-30T02:24:10.512Z,6.64
2022-11-30T02:26:55.256Z,6.84
2022-11-30T02:29:43.958Z,6.64
2022-11-30T02:32:19.345Z,6.72
2022-11-30T02:34:48.565Z,6.42
2022-11-30T02:37:16.938Z,6.31
2022-11-30T02:39:44.221Z,6.35
2022-11-30T02:42:13.372Z,6.55
2022-11-30T02:44:43.006Z,6.34
2022-11-30T02:47:22.535Z,6.43
2022-11-30T02:50:08.757Z,6.46
2022-11-30T02:52:35.666Z,6.38
2022-11-30T02:55:08.497Z,6.60
2022-11-30T02:57:35.752Z,6.31
2022-11-30T03:00:07.177Z,6.61
2022-11-30T03:02:34.268Z,6.44
2022-11-30T03:05:00.873Z,6.64
2022-11-30T03:07:27.490Z,6.45
2022-11-30T03:09:54.079Z,6.54
2022-11-30T03:12:20.726Z,6.63
2022-11-30T03:14:47.547Z,6.72
2022-11-30T03:17:14.704Z,6.80
2022-11-30T03:19:41.295Z,6.88
2022-11-30T03:22:08.060Z,6.80
2022-11-30T03:24:34.684Z,6.49
2022-11-30T03:27:01.614Z,6.33
2022-11-30T03:29:28.161Z,6.30
2022-11-30T03:31:54.779Z,6.69
2022-11-30T03:34:22.667Z,6.64
2022-11-30T03:36:49.266Z,6.65
2022-11-30T03:39:15.817Z,6.77
2022-11-30T03:41:42.470Z,6.30
2022-11-30T03:44:09.046Z,6.53
2022-11-30T03:46:35.782Z,6.48
2022-11-30T03:49:02.710Z,6.38
2022-11-30T03:51:29.374Z,6.46
2022-11-30T03:53:55.961Z,6.52
2022-11-30T03:56:22.686Z,6.72
2022-11-30T03:58:49.286Z,6.77
2022-11-30T04:01:19.340Z,6.77
2022-11-30T04:03:46.032Z,6.57
2022-11-30T04:06:12.823Z,6.71
2022-11-30T04:08:39.804Z,6.92
2022-11-30T04:11:08.055Z,6.90
2022-11-30T04:13:36.481Z,6.85
2022-11-30T04:16:03.753Z,6.54
2022-11-30T04:18:32.400Z,6.38
2022-11-30T04:21:00.743Z,6.72
2022-11-30T04:23:31.790Z,6.48
2022-11-30T04:25:58.530Z,6.54
2022-11-30T04:28:25.150Z,6.53
2022-11-30T04:30:53.736Z,6.44
2022-11-30T04:33:20.454Z,6.51
2022-11-30T04:35:54.586Z,6.58
2022-11-30T04:38:21.872Z,6.80
2022-11-30T04:40:48.409Z,6.62
2022-11-30T04:43:15.185Z,6.67
2022-11-30T04:45:43.336Z,6.74
2022-11-30T04:48:10.557Z,6.97
2022-11-30T04:50:37.268Z,6.84
2022-11-30T04:53:03.980Z,6.71
2022-11-30T04:55:31.140Z,6.36
2022-11-30T04:57:57.768Z,6.25
2022-11-30T05:00:24.726Z,6.55
2022-11-30T05:02:53.116Z,6.19
2022-11-30T05:05:20.501Z,6.41
2022-11-30T05:07:51.535Z,6.28
2022-11-30T05:10:18.602Z,6.41
2022-11-30T05:12:45.351Z,6.36
2022-11-30T05:15:12.122Z,6.03
2022-11-30T05:17:39.047Z,6.39
2022-11-30T05:20:06.365Z,6.61
2022-11-30T05:22:35.090Z,6.64
2022-11-30T05:25:01.963Z,6.69
2022-11-30T05:27:28.549Z,6.47
2022-11-30T05:29:55.169Z,6.37
2022-11-30T05:32:21.759Z,6.40
2022-11-30T05:34:51.228Z,6.18
2022-11-30T05:37:19.788Z,6.48
2022-11-30T05:39:46.590Z,6.70
2022-11-30T05:42:13.297Z,6.78
2022-11-30T05:44:39.855Z,6.84
2022-11-30T05:47:06.551Z,6.77
2022-11-30T05:49:33.170Z,6.18
2022-11-30T05:51:59.794Z,6.38
2022-11-30T05:54:26.354Z,6.34
2022-11-30T05:56:54.983Z,6.52
2022-11-30T05:59:23.204Z,6.54
2022-11-30T06:01:52.525Z,6.72
2022-11-30T06:04:21.659Z,6.29
2022-11-30T06:06:49.557Z,6.44
2022-11-30T06:09:16.564Z,6.25
2022-11-30T06:11:43.202Z,6.67
2022-11-30T06:14:09.798Z,6.58
2022-11-30T06:16:39.623Z,6.75
2022-11-30T06:19:06.704Z,6.60
2022-11-30T06:21:33.417Z,6.35
2022-11-30T06:24:00.092Z,6.61
2022-11-30T06:26:26.663Z,6.77
2022-11-30T06:28:53.352Z,6.81
2022-11-30T06:31:20.023Z,6.91
2022-11-30T06:33:46.712Z,6.62
2022-11-30T06:36:13.389Z,6.95
2022-11-30T06:38:39.968Z,7.00
2022-11-30T06:41:08.541Z,6.77
2022-11-30T06:43:39.653Z,6.54
2022-11-30T06:46:07.337Z,6.44
2022-11-30T06:48:34.582Z,6.94
2022-11-30T06:51:01.718Z,6.86
2022-11-30T06:53:28.311Z,6.82
2022-11-30T06:55:54.996Z,6.99
2022-11-30T06:58:21.789Z,7.01
2022-11-30T07:00:48.520Z,6.95
2022-11-30T07:03:15.229Z,6.70
2022-11-30T07:05:46.267Z,6.71
2022-11-30T07:08:15.727Z,6.72
2022-11-30T07:10:47.049Z,6.98
2022-11-30T07:13:16.188Z,6.94
2022-11-30T07:15:43.388Z,6.78
2022-11-30T07:18:11.537Z,7.02
2022-11-30T07:20:38.524Z,6.91
2022-11-30T07:23:26.117Z,6.97
2022-11-30T07:26:06.480Z,6.72
2022-11-30T07:28:38.349Z,7.15
2022-11-30T07:31:20.036Z,7.20
2022-11-30T07:33:48.200Z,6.71
2022-11-30T07:36:15.689Z,7.02
2022-11-30T07:38:42.538Z,7.03
2022-11-30T07:41:09.908Z,7.08
2022-11-30T07:43:36.537Z,6.92
2022-11-30T07:46:03.909Z,7.21
2022-11-30T07:48:30.884Z,7.17
2022-11-30T07:51:05.416Z,7.15
2022-11-30T07:53:32.179Z,7.05
2022-11-30T07:56:06.328Z,7.13
2022-11-30T07:58:33.300Z,6.84
2022-11-30T08:01:05.696Z,6.95
2022-11-30T08:03:37.292Z,6.62
2022-11-30T08:06:07.289Z,6.98
2022-11-30T08:08:36.621Z,6.99
2022-11-30T08:11:05.135Z,7.13
2022-11-30T08:13:32.218Z,7.08
2022-11-30T08:16:06.412Z,7.01
2022-11-30T08:18:33.255Z,6.93
2022-11-30T08:21:01.532Z,7.00
2022-11-30T08:23:32.606Z,7.04
2022-11-30T08:26:07.563Z,7.12
2022-11-30T08:28:37.565Z,7.14
2022-11-30T08:31:07.386Z,6.48
2022-11-30T08:33:35.778Z,6.69
2022-11-30T08:36:10.190Z,6.99
2022-11-30T08:38:38.046Z,7.18
2022-11-30T08:41:06.107Z,7.08
2022-11-30T08:43:33.716Z,7.11
2022-11-30T08:46:04.250Z,6.88
2022-11-30T08:48:35.670Z,6.72
2022-11-30T08:51:05.284Z,6.98
2022-11-30T08:53:33.008Z,6.72
2022-11-30T08:56:03.692Z,6.99
2022-11-30T08:58:32.664Z,6.99
2022-11-30T09:01:14.348Z,7.27
2022-11-30T09:03:42.274Z,6.90
2022-11-30T09:06:12.928Z,6.61
2022-11-30T09:08:41.319Z,7.01
2022-11-30T09:11:14.089Z,6.76
2022-11-30T09:13:41.662Z,6.84
2022-11-30T09:16:08.390Z,6.99
2022-11-30T09:18:35.737Z,7.09
2022-11-30T09:21:04.509Z,6.96
2022-11-30T09:23:31.113Z,6.59
2022-11-30T09:26:02.664Z,6.97
2022-11-30T09:28:30.804Z,6.85
2022-11-30T09:31:23.738Z,6.91
2022-11-30T09:33:51.511Z,6.89
2022-11-30T09:36:20.289Z,7.09
2022-11-30T09:38:47.679Z,7.12
2022-11-30T09:41:14.208Z,6.94
2022-11-30T09:43:59.393Z,6.48
2022-11-30T09:46:30.940Z,7.02
2022-11-30T09:49:04.915Z,7.30
2022-11-30T09:51:47.560Z,7.28
2022-11-30T09:54:22.249Z,7.08
2022-11-30T09:56:50.141Z,6.74
2022-11-30T09:59:29.709Z,7.22
2022-11-30T10:01:58.103Z,7.24
2022-11-30T10:04:29.885Z,7.22
2022-11-30T10:07:11.437Z,7.11
2022-11-30T10:10:15.915Z,6.94
2022-11-30T10:12:45.899Z,7.06
2022-11-30T10:15:54.441Z,7.29
2022-11-30T10:18:39.487Z,7.18
2022-11-30T10:21:31.755Z,7.28
2022-11-30T10:24:15.499Z,7.36
2022-11-30T10:26:53.473Z,7.43
2022-11-30T10:29:27.246Z,7.17
2022-11-30T10:31:58.634Z,7.00
2022-11-30T10:34:35.267Z,7.13
2022-11-30T10:37:04.661Z,7.06
2022-11-30T10:39:47.519Z,7.01
2022-11-30T10:42:30.800Z,7.26
2022-11-30T10:45:09.303Z,7.13
2022-11-30T10:47:47.768Z,6.99
2022-11-30T10:50:16.237Z,6.62
2022-11-30T10:52:51.300Z,6.84
2022-11-30T10:55:28.545Z,7.15
2022-11-30T10:58:05.561Z,7.11
2022-11-30T11:00:32.562Z,7.02
2022-11-30T11:02:59.224Z,7.03
2022-11-30T11:05:27.456Z,7.12
2022-11-30T11:08:04.387Z,7.10
2022-11-30T11:10:44.112Z,6.79
2022-11-30T11:13:18.203Z,6.95
2022-11-30T11:16:01.447Z,7.03
2022-11-30T11:18:30.065Z,7.02
2022-11-30T11:21:04.378Z,7.19
2022-11-30T11:23:35.212Z,7.13
2022-11-30T11:26:02.432Z,6.85
2022-11-30T11:28:29.465Z,6.93
2022-11-30T11:30:57.276Z,6.77
2022-11-30T11:33:28.749Z,6.85
2022-11-30T11:36:16.057Z,7.09
2022-11-30T11:38:45.132Z,7.07
2022-11-30T11:41:28.348Z,7.24
2022-11-30T11:44:22.932Z,7.12
2022-11-30T11:46:58.993Z,7.18
2022-11-30T11:49:31.700Z,7.02
2022-11-30T11:52:17.815Z,7.13
2022-11-30T11:54:53.261Z,7.22
2022-11-30T11:57:23.549Z,6.93
2022-11-30T12:00:05.611Z,7.25
2022-11-30T12:02:46.120Z,7.29
2022-11-30T12:05:21.497Z,7.41
2022-11-30T12:08:09.685Z,7.49
2022-11-30T12:10:59.442Z,7.58
2022-11-30T12:13:34.176Z,7.34
2022-11-30T12:16:15.819Z,7.56
2022-11-30T12:19:07.140Z,7.36
2022-11-30T12:21:45.638Z,7.59
2022-11-30T12:24:52.760Z,7.52
2022-11-30T12:27:33.243Z,7.35
2022-11-30T12:30:24.766Z,7.38
2022-11-30T12:33:28.892Z,7.39
2022-11-30T12:36:16.934Z,7.59
2022-11-30T12:38:48.505Z,7.44
2022-11-30T12:41:41.415Z,7.40
2022-11-30T12:44:42.145Z,7.35
2022-11-30T12:47:17.794Z,6.88
2022-11-30T12:49:57.434Z,7.27
2022-11-30T12:52:50.052Z,7.28
2022-11-30T12:55:50.401Z,7.13
2022-11-30T12:58:41.638Z,7.15
2022-11-30T13:01:33.204Z,7.32
2022-11-30T13:04:22.488Z,7.20
2022-11-30T13:06:58.370Z,6.78
2022-11-30T13:09:40.489Z,6.98
2022-11-30T13:12:36.278Z,7.08
2022-11-30T13:15:17.584Z,7.20
2022-11-30T13:17:45.945Z,7.00
2022-11-30T13:20:31.258Z,7.09
2022-11-30T13:23:05.760Z,7.10
2022-11-30T13:26:10.073Z,7.17
2022-11-30T13:28:42.741Z,7.20
2022-11-30T13:31:27.336Z,7.15
2022-11-30T13:33:53.933Z,7.14
2022-11-30T13:36:32.871Z,7.02
2022-11-30T13:39:14.578Z,7.04
2022-11-30T13:41:46.888Z,7.20
2022-11-30T13:44:33.377Z,7.37
2022-11-30T13:47:06.036Z,7.28
2022-11-30T13:49:37.434Z,7.24
2022-11-30T13:54:57.358Z,6.91
2022-11-30T13:57:29.806Z,7.01
2022-11-30T13:59:58.930Z,7.05
2022-11-30T14:02:41.429Z,7.08
2022-11-30T14:05:17.074Z,6.87
2022-11-30T14:08:06.485Z,7.15
2022-11-30T14:10:39.348Z,7.13
2022-11-30T14:13:31.894Z,7.12
2022-11-30T14:16:01.440Z,7.01
2022-11-30T14:18:47.200Z,7.01
2022-11-30T14:21:17.942Z,6.74
2022-11-30T14:23:50.790Z,6.81
2022-11-30T14:26:39.914Z,6.40
2022-11-30T14:29:09.579Z,6.44
2022-11-30T14:32:11.729Z,7.06
2022-11-30T14:34:43.181Z,6.74
2022-11-30T14:37:22.086Z,6.81
2022-11-30T14:39:49.928Z,6.60
2022-11-30T14:42:24.097Z,6.47
2022-11-30T14:44:50.871Z,6.49
2022-11-30T14:47:30.427Z,6.69
2022-11-30T14:49:58.699Z,6.69
2022-11-30T14:52:46.560Z,6.39
2022-11-30T14:55:25.116Z,6.33
2022-11-30T14:58:45.686Z,6.65
2022-11-30T15:01:31.900Z,6.49
2022-11-30T15:04:12.801Z,6.66
2022-11-30T15:06:40.838Z,6.47
2022-11-30T15:09:18.137Z,6.53
2022-11-30T15:11:47.820Z,6.61
2022-11-30T15:14:14.415Z,6.39
2022-11-30T15:16:53.428Z,6.49
2022-11-30T15:19:28.742Z,6.46
2022-11-30T15:21:57.041Z,6.37
2022-11-30T15:24:24.244Z,6.38
2022-11-30T15:27:01.298Z,6.20
2022-11-30T15:29:46.747Z,6.67
2022-11-30T15:32:20.053Z,6.57
2022-11-30T15:34:56.592Z,6.19
2022-11-30T15:37:32.584Z,6.41
2022-11-30T15:40:02.191Z,6.05
2022-11-30T15:42:40.001Z,6.12
2022-11-30T15:45:18.754Z,6.55
2022-11-30T15:47:45.504Z,6.52
2022-11-30T15:50:30.607Z,6.36
2022-11-30T15:53:02.928Z,6.45
2022-11-30T15:55:46.369Z,6.52
2022-11-30T15:58:32.719Z,6.47
2022-11-30T16:01:09.044Z,6.47
2022-11-30T16:03:55.932Z,6.20
2022-11-30T16:06:24.450Z,6.27
2022-11-30T16:08:52.062Z,5.86
2022-11-30T16:11:18.824Z,6.60
2022-11-30T16:13:46.741Z,5.93
2022-11-30T16:16:19.735Z,6.25
2022-11-30T16:18:46.924Z,6.31
2022-11-30T16:21:16.490Z,6.33
2022-11-30T16:23:43.355Z,6.41
2022-11-30T16:26:23.027Z,6.18
2022-11-30T16:28:57.720Z,6.11
2022-11-30T16:31:25.199Z,6.36
2022-11-30T16:33:51.866Z,6.23
2022-11-30T16:36:20.258Z,6.21
2022-11-30T16:38:48.818Z,6.34
2022-11-30T16:41:21.625Z,6.31
2022-11-30T16:43:50.380Z,6.23
2022-11-30T16:46:25.025Z,6.28
2022-11-30T16:48:52.446Z,6.32
2022-11-30T16:51:29.635Z,6.34
2022-11-30T16:53:56.320Z,6.20
2022-11-30T16:56:23.317Z,6.37
2022-11-30T16:58:50.125Z,6.29
2022-11-30T17:01:22.374Z,6.32
2022-11-30T17:03:51.521Z,6.47
2022-11-30T17:06:23.214Z,6.49
2022-11-30T17:08:50.443Z,6.34
2022-11-30T17:11:31.136Z,6.16
2022-11-30T17:13:57.883Z,6.10
2022-11-30T17:16:24.715Z,6.08
2022-11-30T17:18:51.455Z,6.00
2022-11-30T17:21:23.766Z,6.20
2022-11-30T17:23:50.498Z,6.08
2022-11-30T17:26:17.138Z,5.74
2022-11-30T17:28:43.926Z,5.85
2022-11-30T17:31:11.933Z,5.73
2022-11-30T17:33:42.293Z,5.80
2022-11-30T17:36:14.011Z,5.53
2022-11-30T17:38:42.412Z,5.96
2022-11-30T17:41:18.350Z,5.82
2022-11-30T17:43:46.577Z,5.61
2022-11-30T17:46:15.842Z,5.43
2022-11-30T17:48:43.633Z,5.72
2022-11-30T17:51:10.587Z,6.22
2022-11-30T17:53:41.453Z,5.75
2022-11-30T17:56:16.103Z,5.80
2022-11-30T17:58:44.731Z,5.73
2022-11-30T18:01:20.466Z,5.68
2022-11-30T18:03:48.175Z,5.48
2022-11-30T18:06:15.823Z,5.58
2022-11-30T18:08:42.968Z,5.59
2022-11-30T18:11:11.424Z,5.56
2022-11-30T18:13:39.046Z,5.40
2022-11-30T18:16:06.503Z,6.00
2022-11-30T18:18:33.135Z,5.65
2022-11-30T18:21:07.222Z,5.68
2022-11-30T18:23:37.251Z,5.48
2022-11-30T18:26:05.748Z,5.57
2022-11-30T18:28:32.597Z,5.46
2022-11-30T18:30:59.635Z,5.42
2022-11-30T18:33:26.328Z,5.39
2022-11-30T18:35:58.503Z,5.72
2022-11-30T18:38:26.259Z,5.53
2022-11-30T18:40:53.105Z,5.62
2022-11-30T18:43:19.854Z,5.81
2022-11-30T18:45:46.499Z,5.76
2022-11-30T18:48:13.125Z,6.02
2022-11-30T18:50:39.821Z,5.90
2022-11-30T18:53:06.482Z,5.74
2022-11-30T18:55:33.221Z,5.71
2022-11-30T18:58:01.171Z,5.76
2022-11-30T19:00:29.083Z,5.73
2022-11-30T19:02:55.911Z,5.73
2022-11-30T19:05:39.815Z,5.77
2022-11-30T19:08:09.066Z,5.39
2022-11-30T19:10:37.436Z,5.31
2022-11-30T19:13:05.268Z,5.39
2022-11-30T19:15:44.387Z,5.69
2022-11-30T19:18:11.334Z,5.70
2022-11-30T19:20:41.804Z,5.89
2022-11-30T19:23:08.566Z,5.63
2022-11-30T19:25:37.339Z,5.72
2022-11-30T19:28:04.486Z,5.72
2022-11-30T19:30:31.100Z,5.41
2022-11-30T19:32:57.813Z,5.58
2022-11-30T19:35:25.169Z,5.81
2022-11-30T19:37:52.724Z,5.72
2022-11-30T19:40:19.405Z,5.95
2022-11-30T19:42:46.036Z,5.83
2022-11-30T19:45:13.100Z,5.86
2022-11-30T19:47:39.767Z,5.96
2022-11-30T19:50:06.958Z,5.71
2022-11-30T19:52:33.572Z,5.99
2022-11-30T19:55:00.196Z,5.86
2022-11-30T19:57:26.805Z,5.49
2022-11-30T19:59:53.775Z,5.72
2022-11-30T20:02:20.609Z,5.64
2022-11-30T20:04:47.482Z,5.73
2022-11-30T20:07:17.155Z,5.56
2022-11-30T20:09:43.893Z,5.60
2022-11-30T20:12:10.546Z,5.70
2022-11-30T20:14:37.326Z,5.74
2022-11-30T20:17:04.156Z,5.53
2022-11-30T20:19:34.051Z,5.53
2022-11-30T20:22:03.895Z,5.57
2022-11-30T20:24:31.058Z,5.58
2022-11-30T20:26:57.692Z,5.61
2022-11-30T20:29:24.386Z,5.77
2022-11-30T20:31:51.061Z,5.54
2022-11-30T20:34:17.961Z,5.43
2022-11-30T20:36:45.404Z,5.28
2022-11-30T20:39:12.141Z,5.29
2022-11-30T20:41:39.253Z,5.35
2022-11-30T20:44:06.039Z,5.15
2022-11-30T20:46:35.201Z,5.23
2022-11-30T20:49:04.647Z,5.49
2022-11-30T20:51:34.828Z,5.61
2022-11-30T20:54:05.759Z,5.29
2022-11-30T20:56:35.364Z,5.40
2022-11-30T20:59:05.064Z,4.94
2022-11-30T21:01:32.145Z,4.99
2022-11-30T21:04:02.286Z,5.18
2022-11-30T21:06:30.298Z,5.06
2022-11-30T21:08:57.641Z,5.30
2022-11-30T21:11:26.882Z,5.05
2022-11-30T21:13:59.758Z,5.13
2022-11-30T21:16:29.118Z,5.30
2022-11-30T21:18:57.998Z,5.32
2022-11-30T21:21:30.829Z,5.57
2022-11-30T21:24:02.759Z,5.61
2022-11-30T21:26:49.752Z,5.46
2022-11-30T21:29:17.539Z,5.61
2022-11-30T21:31:45.055Z,5.68
2022-11-30T21:34:12.173Z,5.58
2022-11-30T21:36:38.835Z,5.48
2022-11-30T21:39:08.909Z,5.59
2022-11-30T21:41:38.011Z,5.51
2022-11-30T21:44:05.830Z,5.30
2022-11-30T21:46:35.073Z,5.02
2022-11-30T21:49:02.430Z,5.38
2022-11-30T21:51:31.641Z,5.26
2022-11-30T21:54:01.167Z,5.12
2022-11-30T21:56:30.852Z,5.49
2022-11-30T21:58:57.681Z,5.46
2022-11-30T22:01:34.055Z,5.52
2022-11-30T22:04:02.974Z,5.36
2022-11-30T22:06:30.863Z,5.49
2022-11-30T22:09:08.044Z,5.45
2022-11-30T22:11:37.410Z,5.60
2022-11-30T22:14:04.102Z,5.39
2022-11-30T22:16:35.955Z,5.20
2022-11-30T22:19:04.193Z,5.15
2022-11-30T22:21:30.926Z,5.54
2022-11-30T22:24:03.342Z,5.34
2022-11-30T22:26:45.160Z,5.18
2022-11-30T22:29:13.161Z,5.13
2022-11-30T22:31:42.058Z,5.26
2022-11-30T22:34:11.318Z,4.90
2022-11-30T22:36:40.720Z,5.31
2022-11-30T22:39:19.314Z,5.08
2022-11-30T22:41:54.234Z,5.04
2022-11-30T22:44:22.286Z,4.86
2022-11-30T22:46:48.923Z,4.90
2022-11-30T22:49:20.715Z,4.98
2022-11-30T22:51:49.055Z,4.82
2022-11-30T22:54:15.688Z,4.73
2022-11-30T22:56:45.028Z,4.63
2022-11-30T22:59:12.890Z,4.80
2022-11-30T23:01:45.507Z,4.87
2022-11-30T23:04:17.610Z,4.80
2022-11-30T23:06:46.265Z,4.92
2022-11-30T23:09:15.648Z,4.85
2022-11-30T23:11:42.401Z,4.81
2022-11-30T23:14:09.670Z,4.89
2022-11-30T23:16:36.982Z,4.55
2022-11-30T23:19:05.202Z,4.53
2022-11-30T23:21:41.335Z,4.47
2022-11-30T23:24:15.191Z,4.56
2022-11-30T23:26:43.023Z,4.48
2022-11-30T23:29:15.355Z,4.60
2022-11-30T23:31:43.597Z,4.42
2022-11-30T23:34:13.207Z,4.43
2022-11-30T23:36:39.891Z,4.33
2022-11-30T23:39:10.827Z,4.51
2022-11-30T23:41:37.904Z,4.37
2022-11-30T23:44:05.017Z,4.20
2022-11-30T23:46:32.097Z,4.23
2022-11-30T23:48:58.787Z,4.31
2022-11-30T23:51:26.053Z,4.16
2022-11-30T23:53:53.275Z,4.33
2022-11-30T23:56:22.113Z,4.20
2022-11-30T23:58:50.821Z,4.31
